TimeMST,TemperatureF,Dew PointF,Humidity,Sea Level PressureIn,VisibilityMPH,Wind Direction,Wind SpeedMPH,Gust SpeedMPH,PrecipitationIn,Events,Conditions,WindDirDegrees,DateUTC
1:53 AM,27.0,23.0,85,30.32,10.0,WNW,10.4,-,N/A,,Clear,290,2013-03-01 08:53:00
2:53 AM,25.0,21.9,88,30.32,10.0,West,6.9,-,N/A,,Clear,280,2013-03-01 09:53:00
3:53 AM,26.1,23.0,88,30.33,10.0,WNW,15.0,-,N/A,,Clear,300,2013-03-01 10:53:00
4:53 AM,28.0,23.0,81,30.33,10.0,WNW,15.0,-,N/A,,Partly Cloudy,300,2013-03-01 11:53:00
5:53 AM,28.0,21.9,78,30.34,10.0,WNW,12.7,-,N/A,,Clear,300,2013-03-01 12:53:00
6:53 AM,28.0,19.9,72,30.37,10.0,WNW,11.5,-,N/A,,Clear,300,2013-03-01 13:53:00
7:53 AM,28.0,19.9,72,30.40,10.0,West,9.2,-,N/A,,Clear,270,2013-03-01 14:53:00
8:53 AM,32.0,24.1,73,30.40,10.0,Variable,3.5,-,N/A,,Clear,0,2013-03-01 15:53:00
9:53 AM,37.0,26.1,65,30.39,10.0,NW,6.9,-,N/A,,Clear,320,2013-03-01 16:53:00
10:53 AM,42.1,18.0,38,30.37,10.0,North,4.6,-,N/A,,Clear,10,2013-03-01 17:53:00
11:53 AM,43.0,17.1,35,30.35,10.0,NNW,6.9,-,N/A,,Overcast,340,2013-03-01 18:53:00
12:53 PM,45.0,17.1,33,30.33,10.0,NW,12.7,21.9,N/A,,Overcast,320,2013-03-01 19:53:00
1:53 PM,46.0,19.0,34,30.29,10.0,NNW,11.5,-,N/A,,Mostly Cloudy,330,2013-03-01 20:53:00
2:53 PM,48.0,21.9,36,30.29,10.0,NW,16.1,23.0,N/A,,Clear,310,2013-03-01 21:53:00
3:53 PM,46.9,21.9,37,30.30,10.0,NW,15.0,-,N/A,,Mostly Cloudy,320,2013-03-01 22:53:00
4:53 PM,44.1,26.1,49,30.31,10.0,WNW,10.4,-,N/A,,Clear,300,2013-03-01 23:53:00
5:53 PM,39.0,25.0,57,30.32,10.0,WNW,8.1,-,N/A,,Clear,300,2013-03-02 00:53:00
7:53 PM,37.0,27.0,67,30.32,10.0,SSW,3.5,-,N/A,,Overcast,210,2013-03-02 02:53:00
8:53 PM,37.9,28.9,70,30.31,10.0,SW,4.6,-,N/A,,Overcast,230,2013-03-02 03:53:00
9:53 PM,37.0,28.0,70,30.30,10.0,Calm,Calm,-,N/A,,Overcast,0,2013-03-02 04:53:00
10:53 PM,36.0,28.9,76,30.28,10.0,South,3.5,-,N/A,,Overcast,170,2013-03-02 05:53:00